Fort Worth, Texas
Current Conditions -  °F | °C
As of 4:53 AM on Sunday 23 Nov 2014 (Local Time) from KFTW Reporting Station
Clear Clear  
Wind Chill: 54°   Ceiling: Unl
Heat Index: 54°   Visibility: 10mi
Dew Point: 52°   Wind: 3mph
Humidity: 93%   Direction: 210°SSW
Pressure: 29.6"   Gusts: NA
Location:  32.75°N, 97.33°W
Report Text: KFTW 231053Z 21003KT 10SM CLR 12/11 A2960 RMK AO2 SLP020 T01220111
Loading
Personal Weather Stations






























Interactive Weather Map New forecast layout! Learn more

10-Day Weather Forecast

Advertisements
Track Severe Weather on mobile